sensor_id;sensor_type;location;lat;lon;timestamp;temperature;humidity
18041;DHT22;9145;48.588;9.250;2022-12-18T00:02:05;-6.80;99.90
18041;DHT22;9145;48.588;9.250;2022-12-18T00:04:33;-6.80;99.90
18041;DHT22;9145;48.588;9.250;2022-12-18T00:07:00;-6.80;99.90
18041;DHT22;9145;48.588;9.250;2022-12-18T00:09:27;-6.80;99.90
18041;DHT22;9145;48.588;9.250;2022-12-18T00:11:53;-6.90;99.90
18041;DHT22;9145;48.588;9.250;2022-12-18T00:14:20;-7.10;99.90
18041;DHT22;9145;48.588;9.250;2022-12-18T00:16:47;-7.10;99.90
18041;DHT22;9145;48.588;9.250;2022-12-18T00:19:14;-7.20;99.90
18041;DHT22;9145;48.588;9.250;2022-12-18T00:21:43;-7.40;99.90
18041;DHT22;9145;48.588;9.250;2022-12-18T00:24:10;-7.50;99.90
18041;DHT22;9145;48.588;9.250;2022-12-18T00:26:38;-7.50;99.90
18041;DHT22;9145;48.588;9.250;2022-12-18T00:29:07;-7.60;99.90
18041;DHT22;9145;48.588;9.250;2022-12-18T00:31:34;-7.70;99.90
18041;DHT22;9145;48.588;9.250;2022-12-18T00:34:02;-7.80;99.90
18041;DHT22;9145;48.588;9.250;2022-12-18T00:36:31;-7.90;99.90
18041;DHT22;9145;48.588;9.250;2022-12-18T00:39:02;-7.90;99.90
18041;DHT22;9145;48.588;9.250;2022-12-18T00:41:29;-7.80;99.90
18041;DHT22;9145;48.588;9.250;2022-12-18T00:44:11;-7.80;99.90
18041;DHT22;9145;48.588;9.250;2022-12-18T00:46:39;-7.90;99.90
18041;DHT22;9145;48.588;9.250;2022-12-18T00:49:06;-7.90;99.90
18041;DHT22;9145;48.588;9.250;2022-12-18T00:51:33;-7.90;99.90
18041;DHT22;9145;48.588;9.250;2022-12-18T00:54:01;-8.00;99.90
18041;DHT22;9145;48.588;9.250;2022-12-18T00:56:28;-8.00;99.90
18041;DHT22;9145;48.588;9.250;2022-12-18T00:58:55;-8.20;99.90
18041;DHT22;9145;48.588;9.250;2022-12-18T01:01:22;-8.20;99.90
18041;DHT22;9145;48.588;9.250;2022-12-18T01:03:49;-8.20;99.90
18041;DHT22;9145;48.588;9.250;2022-12-18T01:06:16;-8.10;99.90
18041;DHT22;9145;48.588;9.250;2022-12-18T01:08:43;-8.10;99.90
18041;DHT22;9145;48.588;9.250;2022-12-18T01:11:13;-8.10;99.90
18041;DHT22;9145;48.588;9.250;2022-12-18T01:13:40;-8.10;99.90
18041;DHT22;9145;48.588;9.250;2022-12-18T01:16:07;-8.10;99.90
18041;DHT22;9145;48.588;9.250;2022-12-18T01:18:35;-8.10;99.90
18041;DHT22;9145;48.588;9.250;2022-12-18T01:21:06;-8.10;99.90
18041;DHT22;9145;48.588;9.250;2022-12-18T01:23:33;-8.20;99.90
18041;DHT22;9145;48.588;9.250;2022-12-18T01:26:04;-8.20;99.90
18041;DHT22;9145;48.588;9.250;2022-12-18T01:28:33;-8.20;99.90
18041;DHT22;9145;48.588;9.250;2022-12-18T01:31:12;-8.20;99.90
18041;DHT22;9145;48.588;9.250;2022-12-18T01:33:39;-8.20;99.90
18041;DHT22;9145;48.588;9.250;2022-12-18T01:36:07;-8.20;99.90
18041;DHT22;9145;48.588;9.250;2022-12-18T01:38:34;-8.20;99.90
18041;DHT22;9145;48.588;9.250;2022-12-18T01:41:01;-8.20;99.90
18041;DHT22;9145;48.588;9.250;2022-12-18T01:43:47;-8.20;99.90
18041;DHT22;9145;48.588;9.250;2022-12-18T01:46:14;-8.20;99.90
18041;DHT22;9145;48.588;9.250;2022-12-18T01:48:42;-8.20;99.90
18041;DHT22;9145;48.588;9.250;2022-12-18T01:51:10;-8.20;99.90
18041;DHT22;9145;48.588;9.250;2022-12-18T01:53:39;-8.20;99.90
18041;DHT22;9145;48.588;9.250;2022-12-18T01:56:07;-8.30;99.90
18041;DHT22;9145;48.588;9.250;2022-12-18T01:58:41;-8.30;99.90
18041;DHT22;9145;48.588;9.250;2022-12-18T02:01:11;-8.20;99.90
18041;DHT22;9145;48.588;9.250;2022-12-18T02:03:41;-8.20;99.90
18041;DHT22;9145;48.588;9.250;2022-12-18T02:06:13;-8.20;99.90
18041;DHT22;9145;48.588;9.250;2022-12-18T02:08:50;-8.20;99.90
18041;DHT22;9145;48.588;9.250;2022-12-18T02:11:27;-8.20;99.90
18041;DHT22;9145;48.588;9.250;2022-12-18T02:14:03;-8.20;99.90
18041;DHT22;9145;48.588;9.250;2022-12-18T02:16:39;-8.20;99.90
18041;DHT22;9145;48.588;9.250;2022-12-18T02:19:18;-8.20;99.90
18041;DHT22;9145;48.588;9.250;2022-12-18T02:21:52;-8.20;99.90
18041;DHT22;9145;48.588;9.250;2022-12-18T02:24:29;-8.30;99.90
18041;DHT22;9145;48.588;9.250;2022-12-18T02:27:03;-8.30;99.90
18041;DHT22;9145;48.588;9.250;2022-12-18T02:29:34;-8.30;99.90
18041;DHT22;9145;48.588;9.250;2022-12-18T02:32:04;-8.30;99.90
18041;DHT22;9145;48.588;9.250;2022-12-18T02:34:37;-8.30;99.90
18041;DHT22;9145;48.588;9.250;2022-12-18T02:37:08;-8.40;99.90
18041;DHT22;9145;48.588;9.250;2022-12-18T02:39:38;-8.40;99.90
18041;DHT22;9145;48.588;9.250;2022-12-18T02:42:06;-8.40;99.90
18041;DHT22;9145;48.588;9.250;2022-12-18T02:44:34;-8.50;99.90
18041;DHT22;9145;48.588;9.250;2022-12-18T02:47:01;-8.50;99.90
18041;DHT22;9145;48.588;9.250;2022-12-18T02:49:34;-8.50;99.90
18041;DHT22;9145;48.588;9.250;2022-12-18T02:52:10;-8.60;99.90
18041;DHT22;9145;48.588;9.250;2022-12-18T02:54:53;-8.60;99.90
18041;DHT22;9145;48.588;9.250;2022-12-18T02:57:27;-8.60;99.90
18041;DHT22;9145;48.588;9.250;2022-12-18T03:00:00;-8.60;99.90
18041;DHT22;9145;48.588;9.250;2022-12-18T03:02:33;-8.60;99.90
18041;DHT22;9145;48.588;9.250;2022-12-18T03:05:05;-8.60;99.90
18041;DHT22;9145;48.588;9.250;2022-12-18T03:07:37;-8.70;99.90
18041;DHT22;9145;48.588;9.250;2022-12-18T03:10:07;-8.70;99.90
18041;DHT22;9145;48.588;9.250;2022-12-18T03:12:39;-8.70;99.90
18041;DHT22;9145;48.588;9.250;2022-12-18T03:15:10;-8.70;99.90
18041;DHT22;9145;48.588;9.250;2022-12-18T03:17:41;-8.70;99.90
18041;DHT22;9145;48.588;9.250;2022-12-18T03:20:12;-8.60;99.90
18041;DHT22;9145;48.588;9.250;2022-12-18T03:22:42;-8.70;99.90
18041;DHT22;9145;48.588;9.250;2022-12-18T03:25:13;-8.70;99.90
18041;DHT22;9145;48.588;9.250;2022-12-18T03:27:46;-8.80;99.90
18041;DHT22;9145;48.588;9.250;2022-12-18T03:30:15;-8.80;99.90
18041;DHT22;9145;48.588;9.250;2022-12-18T03:32:46;-8.80;99.90
18041;DHT22;9145;48.588;9.250;2022-12-18T03:35:18;-8.80;99.90
18041;DHT22;9145;48.588;9.250;2022-12-18T03:37:47;-8.80;99.90
18041;DHT22;9145;48.588;9.250;2022-12-18T03:40:14;-8.80;99.90
18041;DHT22;9145;48.588;9.250;2022-12-18T03:42:46;-8.80;99.90
18041;DHT22;9145;48.588;9.250;2022-12-18T03:45:20;-8.70;99.90
18041;DHT22;9145;48.588;9.250;2022-12-18T03:47:57;-8.70;99.90
18041;DHT22;9145;48.588;9.250;2022-12-18T03:50:31;-8.70;99.90
18041;DHT22;9145;48.588;9.250;2022-12-18T03:53:09;-8.70;99.90
18041;DHT22;9145;48.588;9.250;2022-12-18T03:55:40;-8.70;99.90
18041;DHT22;9145;48.588;9.250;2022-12-18T03:58:11;-8.70;99.90
18041;DHT22;9145;48.588;9.250;2022-12-18T04:00:40;-8.70;99.90
18041;DHT22;9145;48.588;9.250;2022-12-18T04:03:07;-8.80;99.90
18041;DHT22;9145;48.588;9.250;2022-12-18T04:05:36;-8.80;99.90
18041;DHT22;9145;48.588;9.250;2022-12-18T04:08:03;-8.80;99.90
18041;DHT22;9145;48.588;9.250;2022-12-18T04:10:31;-8.80;99.90
18041;DHT22;9145;48.588;9.250;2022-12-18T04:12:58;-8.80;99.90
18041;DHT22;9145;48.588;9.250;2022-12-18T04:15:26;-8.80;99.90
18041;DHT22;9145;48.588;9.250;2022-12-18T04:17:53;-8.70;99.90
18041;DHT22;9145;48.588;9.250;2022-12-18T04:20:20;-8.70;99.90
18041;DHT22;9145;48.588;9.250;2022-12-18T04:22:47;-8.80;99.90
18041;DHT22;9145;48.588;9.250;2022-12-18T04:25:14;-8.80;99.90
18041;DHT22;9145;48.588;9.250;2022-12-18T04:27:41;-8.90;99.90
18041;DHT22;9145;48.588;9.250;2022-12-18T04:30:08;-8.80;99.90
18041;DHT22;9145;48.588;9.250;2022-12-18T04:32:37;-8.80;99.90
18041;DHT22;9145;48.588;9.250;2022-12-18T04:35:04;-8.90;99.90
18041;DHT22;9145;48.588;9.250;2022-12-18T04:37:33;-8.80;99.90
18041;DHT22;9145;48.588;9.250;2022-12-18T04:40:00;-8.80;99.90
18041;DHT22;9145;48.588;9.250;2022-12-18T04:42:27;-8.80;99.90
18041;DHT22;9145;48.588;9.250;2022-12-18T04:44:54;-8.90;99.90
18041;DHT22;9145;48.588;9.250;2022-12-18T04:47:21;-8.90;99.90
18041;DHT22;9145;48.588;9.250;2022-12-18T04:49:49;-8.90;99.90
18041;DHT22;9145;48.588;9.250;2022-12-18T04:52:15;-8.90;99.90
18041;DHT22;9145;48.588;9.250;2022-12-18T04:54:42;-9.00;99.90
18041;DHT22;9145;48.588;9.250;2022-12-18T04:57:09;-9.10;99.90
18041;DHT22;9145;48.588;9.250;2022-12-18T04:59:36;-9.10;99.90
18041;DHT22;9145;48.588;9.250;2022-12-18T05:02:03;-9.00;99.90
18041;DHT22;9145;48.588;9.250;2022-12-18T05:04:29;-9.00;99.90
18041;DHT22;9145;48.588;9.250;2022-12-18T05:06:57;-9.00;99.90
18041;DHT22;9145;48.588;9.250;2022-12-18T05:09:24;-9.00;99.90
18041;DHT22;9145;48.588;9.250;2022-12-18T05:11:51;-8.90;99.90
18041;DHT22;9145;48.588;9.250;2022-12-18T05:14:18;-8.90;99.90
18041;DHT22;9145;48.588;9.250;2022-12-18T05:16:45;-8.90;99.90
18041;DHT22;9145;48.588;9.250;2022-12-18T05:19:11;-8.90;99.90
18041;DHT22;9145;48.588;9.250;2022-12-18T05:21:38;-8.80;99.90
18041;DHT22;9145;48.588;9.250;2022-12-18T05:24:07;-8.90;99.90
18041;DHT22;9145;48.588;9.250;2022-12-18T05:26:33;-8.90;99.90
18041;DHT22;9145;48.588;9.250;2022-12-18T05:29:00;-9.00;99.90
18041;DHT22;9145;48.588;9.250;2022-12-18T05:31:27;-9.10;99.90
18041;DHT22;9145;48.588;9.250;2022-12-18T05:33:54;-9.10;99.90
18041;DHT22;9145;48.588;9.250;2022-12-18T05:36:21;-9.20;99.90
18041;DHT22;9145;48.588;9.250;2022-12-18T05:38:47;-9.30;99.90
18041;DHT22;9145;48.588;9.250;2022-12-18T05:41:16;-9.30;99.90
18041;DHT22;9145;48.588;9.250;2022-12-18T05:43:43;-9.30;99.90
18041;DHT22;9145;48.588;9.250;2022-12-18T05:46:13;-9.30;99.90
18041;DHT22;9145;48.588;9.250;2022-12-18T05:48:40;-9.30;99.90
18041;DHT22;9145;48.588;9.250;2022-12-18T05:51:08;-9.30;99.90
18041;DHT22;9145;48.588;9.250;2022-12-18T05:53:36;-9.30;99.90
18041;DHT22;9145;48.588;9.250;2022-12-18T05:56:04;-9.30;99.90
18041;DHT22;9145;48.588;9.250;2022-12-18T05:58:34;-9.30;99.90
18041;DHT22;9145;48.588;9.250;2022-12-18T06:01:07;-9.30;99.90
18041;DHT22;9145;48.588;9.250;2022-12-18T06:03:35;-9.30;99.90
18041;DHT22;9145;48.588;9.250;2022-12-18T06:06:02;-9.30;99.90
18041;DHT22;9145;48.588;9.250;2022-12-18T06:08:29;-9.30;99.90
18041;DHT22;9145;48.588;9.250;2022-12-18T06:10:56;-9.30;99.90
18041;DHT22;9145;48.588;9.250;2022-12-18T06:13:22;-9.30;99.90
18041;DHT22;9145;48.588;9.250;2022-12-18T06:15:51;-9.30;99.90
18041;DHT22;9145;48.588;9.250;2022-12-18T06:18:17;-9.30;99.90
18041;DHT22;9145;48.588;9.250;2022-12-18T06:20:44;-9.40;99.90
18041;DHT22;9145;48.588;9.250;2022-12-18T06:23:11;-9.40;99.90
18041;DHT22;9145;48.588;9.250;2022-12-18T06:25:38;-9.40;99.90
18041;DHT22;9145;48.588;9.250;2022-12-18T06:28:05;-9.50;99.90
18041;DHT22;9145;48.588;9.250;2022-12-18T06:30:32;-9.50;99.90
18041;DHT22;9145;48.588;9.250;2022-12-18T06:33:00;-9.60;99.90
18041;DHT22;9145;48.588;9.250;2022-12-18T06:35:27;-9.60;99.90
18041;DHT22;9145;48.588;9.250;2022-12-18T06:37:54;-9.70;99.90
18041;DHT22;9145;48.588;9.250;2022-12-18T06:40:21;-9.70;99.90
18041;DHT22;9145;48.588;9.250;2022-12-18T06:42:48;-9.60;99.90
18041;DHT22;9145;48.588;9.250;2022-12-18T06:45:16;-9.60;99.90
18041;DHT22;9145;48.588;9.250;2022-12-18T06:47:43;-9.60;99.90
18041;DHT22;9145;48.588;9.250;2022-12-18T06:50:11;-9.60;99.90
18041;DHT22;9145;48.588;9.250;2022-12-18T06:52:38;-9.60;99.90
18041;DHT22;9145;48.588;9.250;2022-12-18T06:55:06;-9.50;99.90
18041;DHT22;9145;48.588;9.250;2022-12-18T06:57:37;-9.50;99.90
18041;DHT22;9145;48.588;9.250;2022-12-18T07:00:06;-9.50;99.90
18041;DHT22;9145;48.588;9.250;2022-12-18T07:02:33;-9.50;99.90
18041;DHT22;9145;48.588;9.250;2022-12-18T07:05:00;-9.50;99.90
18041;DHT22;9145;48.588;9.250;2022-12-18T07:07:28;-9.60;99.90
18041;DHT22;9145;48.588;9.250;2022-12-18T07:09:55;-9.60;99.90
18041;DHT22;9145;48.588;9.250;2022-12-18T07:12:22;-9.70;99.90
18041;DHT22;9145;48.588;9.250;2022-12-18T07:14:49;-9.70;99.90
18041;DHT22;9145;48.588;9.250;2022-12-18T07:17:16;-9.70;99.90
18041;DHT22;9145;48.588;9.250;2022-12-18T07:19:42;-9.60;99.90
18041;DHT22;9145;48.588;9.250;2022-12-18T07:22:09;-9.60;99.90
18041;DHT22;9145;48.588;9.250;2022-12-18T07:24:37;-9.60;99.90
18041;DHT22;9145;48.588;9.250;2022-12-18T07:27:04;-9.60;99.90
18041;DHT22;9145;48.588;9.250;2022-12-18T07:29:31;-9.60;99.90
18041;DHT22;9145;48.588;9.250;2022-12-18T07:31:58;-9.70;99.90
18041;DHT22;9145;48.588;9.250;2022-12-18T07:34:24;-9.80;99.90
18041;DHT22;9145;48.588;9.250;2022-12-18T07:36:51;-9.70;99.90
18041;DHT22;9145;48.588;9.250;2022-12-18T07:39:18;-9.60;99.90
18041;DHT22;9145;48.588;9.250;2022-12-18T07:41:46;-9.60;99.90
18041;DHT22;9145;48.588;9.250;2022-12-18T07:44:33;-9.50;99.90
18041;DHT22;9145;48.588;9.250;2022-12-18T07:47:00;-9.50;99.90
18041;DHT22;9145;48.588;9.250;2022-12-18T07:49:27;-9.40;99.90
18041;DHT22;9145;48.588;9.250;2022-12-18T07:51:54;-9.40;99.90
18041;DHT22;9145;48.588;9.250;2022-12-18T07:54:21;-9.40;99.90
18041;DHT22;9145;48.588;9.250;2022-12-18T07:56:50;-9.40;99.90
18041;DHT22;9145;48.588;9.250;2022-12-18T07:59:17;-9.30;99.90
18041;DHT22;9145;48.588;9.250;2022-12-18T08:01:44;-9.30;99.90
18041;DHT22;9145;48.588;9.250;2022-12-18T08:04:10;-9.30;99.90
18041;DHT22;9145;48.588;9.250;2022-12-18T08:06:37;-9.30;99.90
18041;DHT22;9145;48.588;9.250;2022-12-18T08:09:04;-9.30;99.90
18041;DHT22;9145;48.588;9.250;2022-12-18T08:11:31;-9.30;99.90
18041;DHT22;9145;48.588;9.250;2022-12-18T08:13:59;-9.30;99.90
18041;DHT22;9145;48.588;9.250;2022-12-18T08:16:26;-9.30;99.90
18041;DHT22;9145;48.588;9.250;2022-12-18T08:18:54;-9.50;99.90
18041;DHT22;9145;48.588;9.250;2022-12-18T08:21:23;-9.50;99.90
18041;DHT22;9145;48.588;9.250;2022-12-18T08:23:51;-9.50;99.90
18041;DHT22;9145;48.588;9.250;2022-12-18T08:26:18;-9.40;99.90
18041;DHT22;9145;48.588;9.250;2022-12-18T08:28:45;-9.40;99.90
18041;DHT22;9145;48.588;9.250;2022-12-18T08:31:14;-9.30;99.90
18041;DHT22;9145;48.588;9.250;2022-12-18T08:33:41;-9.30;99.90
18041;DHT22;9145;48.588;9.250;2022-12-18T08:36:09;-9.20;99.90
18041;DHT22;9145;48.588;9.250;2022-12-18T08:38:36;-9.20;99.90
18041;DHT22;9145;48.588;9.250;2022-12-18T08:41:05;-9.20;99.90
18041;DHT22;9145;48.588;9.250;2022-12-18T08:43:32;-9.20;99.90
18041;DHT22;9145;48.588;9.250;2022-12-18T08:46:18;-9.10;99.90
18041;DHT22;9145;48.588;9.250;2022-12-18T08:48:45;-9.10;99.90
18041;DHT22;9145;48.588;9.250;2022-12-18T08:51:12;-9.00;99.90
18041;DHT22;9145;48.588;9.250;2022-12-18T08:53:39;-8.90;99.90
18041;DHT22;9145;48.588;9.250;2022-12-18T08:56:07;-8.90;99.90
18041;DHT22;9145;48.588;9.250;2022-12-18T08:58:33;-8.80;99.90
18041;DHT22;9145;48.588;9.250;2022-12-18T09:01:00;-8.80;99.90
18041;DHT22;9145;48.588;9.250;2022-12-18T09:03:29;-8.80;99.90
18041;DHT22;9145;48.588;9.250;2022-12-18T09:05:56;-8.70;99.90
18041;DHT22;9145;48.588;9.250;2022-12-18T09:08:23;-8.60;99.90
18041;DHT22;9145;48.588;9.250;2022-12-18T09:10:50;-8.60;99.90
18041;DHT22;9145;48.588;9.250;2022-12-18T09:13:17;-8.60;99.90
18041;DHT22;9145;48.588;9.250;2022-12-18T09:15:46;-8.40;99.90
18041;DHT22;9145;48.588;9.250;2022-12-18T09:18:14;-8.40;99.90
18041;DHT22;9145;48.588;9.250;2022-12-18T09:20:42;-8.20;99.90
18041;DHT22;9145;48.588;9.250;2022-12-18T09:23:10;-8.10;99.90
18041;DHT22;9145;48.588;9.250;2022-12-18T09:25:38;-8.00;99.90
18041;DHT22;9145;48.588;9.250;2022-12-18T09:28:06;-8.00;99.90
18041;DHT22;9145;48.588;9.250;2022-12-18T09:30:37;-7.90;99.90
18041;DHT22;9145;48.588;9.250;2022-12-18T09:33:04;-7.80;99.90
18041;DHT22;9145;48.588;9.250;2022-12-18T09:35:31;-7.70;99.90
18041;DHT22;9145;48.588;9.250;2022-12-18T09:37:59;-7.50;99.90
18041;DHT22;9145;48.588;9.250;2022-12-18T09:40:30;-7.50;99.90
18041;DHT22;9145;48.588;9.250;2022-12-18T09:43:03;-7.40;99.90
18041;DHT22;9145;48.588;9.250;2022-12-18T09:45:41;-7.30;99.90
18041;DHT22;9145;48.588;9.250;2022-12-18T09:48:11;-7.20;99.90
18041;DHT22;9145;48.588;9.250;2022-12-18T09:50:43;-7.20;99.90
18041;DHT22;9145;48.588;9.250;2022-12-18T09:53:15;-7.00;99.90
18041;DHT22;9145;48.588;9.250;2022-12-18T09:55:45;-6.90;99.90
18041;DHT22;9145;48.588;9.250;2022-12-18T09:58:16;-6.70;99.90
18041;DHT22;9145;48.588;9.250;2022-12-18T10:00:44;-6.60;99.90
18041;DHT22;9145;48.588;9.250;2022-12-18T10:03:12;-6.40;99.90
18041;DHT22;9145;48.588;9.250;2022-12-18T10:05:45;-6.30;99.90
18041;DHT22;9145;48.588;9.250;2022-12-18T10:08:21;-6.20;99.90
18041;DHT22;9145;48.588;9.250;2022-12-18T10:10:51;-6.00;99.90
18041;DHT22;9145;48.588;9.250;2022-12-18T10:13:24;-6.00;99.90
18041;DHT22;9145;48.588;9.250;2022-12-18T10:16:05;-5.80;99.90
18041;DHT22;9145;48.588;9.250;2022-12-18T10:18:56;-5.70;99.90
18041;DHT22;9145;48.588;9.250;2022-12-18T10:21:30;-5.60;99.90
18041;DHT22;9145;48.588;9.250;2022-12-18T10:24:08;-5.60;99.90
18041;DHT22;9145;48.588;9.250;2022-12-18T10:26:38;-5.50;99.90
18041;DHT22;9145;48.588;9.250;2022-12-18T10:29:09;-5.30;99.90
18041;DHT22;9145;48.588;9.250;2022-12-18T10:31:38;-5.30;99.90
18041;DHT22;9145;48.588;9.250;2022-12-18T10:34:08;-5.20;99.90
18041;DHT22;9145;48.588;9.250;2022-12-18T10:36:35;-5.00;99.90
18041;DHT22;9145;48.588;9.250;2022-12-18T10:39:16;-4.90;99.90
18041;DHT22;9145;48.588;9.250;2022-12-18T10:41:43;-4.80;99.90
18041;DHT22;9145;48.588;9.250;2022-12-18T10:44:14;-4.60;99.90
18041;DHT22;9145;48.588;9.250;2022-12-18T10:46:42;-4.40;99.90
18041;DHT22;9145;48.588;9.250;2022-12-18T10:49:19;-4.50;99.90
18041;DHT22;9145;48.588;9.250;2022-12-18T10:51:47;-4.50;99.90
18041;DHT22;9145;48.588;9.250;2022-12-18T10:54:18;-4.40;99.90
18041;DHT22;9145;48.588;9.250;2022-12-18T10:56:47;-4.20;99.90
18041;DHT22;9145;48.588;9.250;2022-12-18T10:59:16;-4.20;99.90
18041;DHT22;9145;48.588;9.250;2022-12-18T11:01:49;-4.20;99.90
18041;DHT22;9145;48.588;9.250;2022-12-18T11:04:19;-4.10;99.90
18041;DHT22;9145;48.588;9.250;2022-12-18T11:06:56;-4.10;99.90
18041;DHT22;9145;48.588;9.250;2022-12-18T11:09:26;-3.90;99.90
18041;DHT22;9145;48.588;9.250;2022-12-18T11:11:55;-3.80;99.90
18041;DHT22;9145;48.588;9.250;2022-12-18T11:14:24;-3.70;99.90
18041;DHT22;9145;48.588;9.250;2022-12-18T11:16:53;-3.60;99.90
18041;DHT22;9145;48.588;9.250;2022-12-18T11:19:28;-3.40;99.90
18041;DHT22;9145;48.588;9.250;2022-12-18T11:21:57;-3.30;99.90
18041;DHT22;9145;48.588;9.250;2022-12-18T11:24:29;-3.20;99.90
18041;DHT22;9145;48.588;9.250;2022-12-18T11:26:58;-3.10;99.90
18041;DHT22;9145;48.588;9.250;2022-12-18T11:29:33;-3.00;99.90
18041;DHT22;9145;48.588;9.250;2022-12-18T11:32:34;-2.90;99.90
18041;DHT22;9145;48.588;9.250;2022-12-18T11:35:09;-2.70;99.90
18041;DHT22;9145;48.588;9.250;2022-12-18T11:37:38;-2.50;99.90
18041;DHT22;9145;48.588;9.250;2022-12-18T11:40:13;-2.40;99.90
18041;DHT22;9145;48.588;9.250;2022-12-18T11:42:45;-2.40;99.90
18041;DHT22;9145;48.588;9.250;2022-12-18T11:45:24;-2.40;99.90
18041;DHT22;9145;48.588;9.250;2022-12-18T11:47:57;-2.30;99.90
18041;DHT22;9145;48.588;9.250;2022-12-18T11:50:28;-2.20;99.90
18041;DHT22;9145;48.588;9.250;2022-12-18T11:52:56;-2.10;99.90
18041;DHT22;9145;48.588;9.250;2022-12-18T11:55:31;-2.00;99.90
18041;DHT22;9145;48.588;9.250;2022-12-18T11:58:05;-1.90;99.90
18041;DHT22;9145;48.588;9.250;2022-12-18T12:00:37;-1.70;99.90
18041;DHT22;9145;48.588;9.250;2022-12-18T12:03:23;-1.60;99.90
18041;DHT22;9145;48.588;9.250;2022-12-18T12:06:02;-1.50;99.90
18041;DHT22;9145;48.588;9.250;2022-12-18T12:08:39;-1.50;99.90
18041;DHT22;9145;48.588;9.250;2022-12-18T12:11:13;-1.40;99.90
18041;DHT22;9145;48.588;9.250;2022-12-18T12:14:01;-1.20;99.90
18041;DHT22;9145;48.588;9.250;2022-12-18T12:16:37;-1.00;99.90
18041;DHT22;9145;48.588;9.250;2022-12-18T12:19:19;-0.90;99.90
18041;DHT22;9145;48.588;9.250;2022-12-18T12:21:55;-0.70;99.90
18041;DHT22;9145;48.588;9.250;2022-12-18T12:24:35;-0.60;99.90
18041;DHT22;9145;48.588;9.250;2022-12-18T12:27:11;-0.70;99.90
18041;DHT22;9145;48.588;9.250;2022-12-18T12:29:49;-0.80;99.90
18041;DHT22;9145;48.588;9.250;2022-12-18T12:32:25;-0.80;99.90
18041;DHT22;9145;48.588;9.250;2022-12-18T12:35:03;-0.70;99.90
18041;DHT22;9145;48.588;9.250;2022-12-18T12:37:42;-0.70;99.90
18041;DHT22;9145;48.588;9.250;2022-12-18T12:40:17;-0.60;99.90
18041;DHT22;9145;48.588;9.250;2022-12-18T12:42:52;-0.70;99.90
18041;DHT22;9145;48.588;9.250;2022-12-18T12:45:42;-0.60;99.90
18041;DHT22;9145;48.588;9.250;2022-12-18T12:48:16;-0.60;99.90
18041;DHT22;9145;48.588;9.250;2022-12-18T12:50:45;-0.60;99.90
18041;DHT22;9145;48.588;9.250;2022-12-18T12:53:21;-0.70;99.90
18041;DHT22;9145;48.588;9.250;2022-12-18T12:55:50;-0.70;99.90
18041;DHT22;9145;48.588;9.250;2022-12-18T12:58:29;-0.80;99.90
18041;DHT22;9145;48.588;9.250;2022-12-18T13:01:05;-0.80;99.90
18041;DHT22;9145;48.588;9.250;2022-12-18T13:03:41;-0.80;99.90
18041;DHT22;9145;48.588;9.250;2022-12-18T13:06:12;-0.90;99.90
18041;DHT22;9145;48.588;9.250;2022-12-18T13:08:54;-1.00;99.90
18041;DHT22;9145;48.588;9.250;2022-12-18T13:11:45;-1.00;99.90
18041;DHT22;9145;48.588;9.250;2022-12-18T13:14:33;-1.00;99.90
18041;DHT22;9145;48.588;9.250;2022-12-18T13:17:29;-1.00;99.90
18041;DHT22;9145;48.588;9.250;2022-12-18T13:20:08;-0.90;99.90
18041;DHT22;9145;48.588;9.250;2022-12-18T13:22:37;-0.80;99.90
18041;DHT22;9145;48.588;9.250;2022-12-18T13:25:32;-0.70;99.90
18041;DHT22;9145;48.588;9.250;2022-12-18T13:28:04;-0.80;99.90
18041;DHT22;9145;48.588;9.250;2022-12-18T13:30:53;-0.80;99.90
18041;DHT22;9145;48.588;9.250;2022-12-18T13:33:44;-0.80;99.90
18041;DHT22;9145;48.588;9.250;2022-12-18T13:36:26;-0.80;99.90
18041;DHT22;9145;48.588;9.250;2022-12-18T13:39:22;-0.80;99.90
18041;DHT22;9145;48.588;9.250;2022-12-18T13:41:51;-0.80;99.90
18041;DHT22;9145;48.588;9.250;2022-12-18T13:44:32;-0.80;99.90
18041;DHT22;9145;48.588;9.250;2022-12-18T13:47:02;-0.70;99.90
18041;DHT22;9145;48.588;9.250;2022-12-18T13:49:37;-0.70;99.90
18041;DHT22;9145;48.588;9.250;2022-12-18T13:52:16;-0.60;99.90
18041;DHT22;9145;48.588;9.250;2022-12-18T13:54:47;-0.60;99.90
18041;DHT22;9145;48.588;9.250;2022-12-18T13:57:27;-0.50;99.90
18041;DHT22;9145;48.588;9.250;2022-12-18T13:59:54;-0.50;99.90
18041;DHT22;9145;48.588;9.250;2022-12-18T14:02:25;-0.50;99.90
18041;DHT22;9145;48.588;9.250;2022-12-18T14:04:53;-0.50;99.90
18041;DHT22;9145;48.588;9.250;2022-12-18T14:07:22;-0.50;99.90
18041;DHT22;9145;48.588;9.250;2022-12-18T14:09:51;-0.60;99.90
18041;DHT22;9145;48.588;9.250;2022-12-18T14:12:21;-0.60;99.90
18041;DHT22;9145;48.588;9.250;2022-12-18T14:15:14;-0.60;99.90
18041;DHT22;9145;48.588;9.250;2022-12-18T14:17:47;-0.60;99.90
18041;DHT22;9145;48.588;9.250;2022-12-18T14:20:15;-0.70;99.90
18041;DHT22;9145;48.588;9.250;2022-12-18T14:22:43;-0.70;99.90
18041;DHT22;9145;48.588;9.250;2022-12-18T14:25:17;-0.70;99.90
18041;DHT22;9145;48.588;9.250;2022-12-18T14:27:47;-0.80;99.90
18041;DHT22;9145;48.588;9.250;2022-12-18T14:30:29;-0.80;99.90
18041;DHT22;9145;48.588;9.250;2022-12-18T14:33:05;-0.80;99.90
18041;DHT22;9145;48.588;9.250;2022-12-18T14:35:33;-0.90;99.90
18041;DHT22;9145;48.588;9.250;2022-12-18T14:38:16;-1.00;99.90
18041;DHT22;9145;48.588;9.250;2022-12-18T14:40:44;-1.10;99.90
18041;DHT22;9145;48.588;9.250;2022-12-18T14:43:11;-1.20;99.90
18041;DHT22;9145;48.588;9.250;2022-12-18T14:45:39;-1.20;99.90
18041;DHT22;9145;48.588;9.250;2022-12-18T14:48:14;-1.30;99.90
18041;DHT22;9145;48.588;9.250;2022-12-18T14:50:41;-1.30;99.90
18041;DHT22;9145;48.588;9.250;2022-12-18T14:53:19;-1.40;99.90
18041;DHT22;9145;48.588;9.250;2022-12-18T14:55:47;-1.50;99.90
18041;DHT22;9145;48.588;9.250;2022-12-18T14:58:16;-1.50;99.90
18041;DHT22;9145;48.588;9.250;2022-12-18T15:00:44;-1.60;99.90
18041;DHT22;9145;48.588;9.250;2022-12-18T15:03:18;-1.50;99.90
18041;DHT22;9145;48.588;9.250;2022-12-18T15:05:45;-1.60;99.90
18041;DHT22;9145;48.588;9.250;2022-12-18T15:08:30;-1.70;99.90
18041;DHT22;9145;48.588;9.250;2022-12-18T15:10:57;-1.80;99.90
18041;DHT22;9145;48.588;9.250;2022-12-18T15:13:24;-1.90;99.90
18041;DHT22;9145;48.588;9.250;2022-12-18T15:15:52;-2.00;99.90
18041;DHT22;9145;48.588;9.250;2022-12-18T15:18:23;-2.00;99.90
18041;DHT22;9145;48.588;9.250;2022-12-18T15:20:56;-2.10;99.90
18041;DHT22;9145;48.588;9.250;2022-12-18T15:23:26;-2.10;99.90
18041;DHT22;9145;48.588;9.250;2022-12-18T15:25:58;-2.20;99.90
18041;DHT22;9145;48.588;9.250;2022-12-18T15:28:34;-2.20;99.90
18041;DHT22;9145;48.588;9.250;2022-12-18T15:31:19;-2.20;99.90
18041;DHT22;9145;48.588;9.250;2022-12-18T15:34:12;-2.30;99.90
18041;DHT22;9145;48.588;9.250;2022-12-18T15:36:39;-2.40;99.90
18041;DHT22;9145;48.588;9.250;2022-12-18T15:39:09;-2.40;99.90
18041;DHT22;9145;48.588;9.250;2022-12-18T15:41:36;-2.40;99.90
18041;DHT22;9145;48.588;9.250;2022-12-18T15:44:20;-2.40;99.90
18041;DHT22;9145;48.588;9.250;2022-12-18T15:46:47;-2.50;99.90
18041;DHT22;9145;48.588;9.250;2022-12-18T15:49:15;-2.50;99.90
18041;DHT22;9145;48.588;9.250;2022-12-18T15:51:42;-2.50;99.90
18041;DHT22;9145;48.588;9.250;2022-12-18T15:54:11;-2.50;99.90
18041;DHT22;9145;48.588;9.250;2022-12-18T15:56:39;-2.50;99.90
18041;DHT22;9145;48.588;9.250;2022-12-18T15:59:24;-2.60;99.90
18041;DHT22;9145;48.588;9.250;2022-12-18T16:01:51;-2.60;99.90
18041;DHT22;9145;48.588;9.250;2022-12-18T16:04:21;-2.60;99.90
18041;DHT22;9145;48.588;9.250;2022-12-18T16:06:49;-2.60;99.90
18041;DHT22;9145;48.588;9.250;2022-12-18T16:09:17;-2.60;99.90